ADDS METAR Data INFO
IDs: Format: Raw Decoded Include TAF

Data at: 0257 UTC 21 Jan 2018

KMGC 210235Z AUTO 20006KT 10SM OVC011 03/02 A3002 RMK AO2
KMGC 210215Z AUTO 19006KT 10SM OVC011 03/02 A3002 RMK AO2
KMGC 210155Z AUTO 18006KT 10SM OVC011 03/02 A3002 RMK AO2
KMGC 210135Z AUTO 19007KT 7SM OVC013 03/02 A3002 RMK AO2
KMGC 210115Z AUTO 19006KT 10SM OVC013 03/02 A3002 RMK AO2
KMGC 210055Z AUTO 19006KT 10SM OVC013 03/02 A3002 RMK AO2
KMGC 210035Z AUTO 19005KT 10SM OVC015 03/02 A3001 RMK AO2
KMGC 210015Z AUTO 18004KT 10SM OVC015 04/02 A3001 RMK AO2
KMGC 202355Z AUTO 20005KT 10SM OVC015 03/01 A3001 RMK AO2
KMGC 202335Z AUTO 20004KT 10SM OVC017 03/01 A3001 RMK AO2
KMGC 202315Z AUTO 19004KT 10SM OVC019 04/01 A3000 RMK AO2
KMGC 202255Z AUTO 19005KT 10SM OVC019 04/01 A2999 RMK AO2
KMGC 202235Z AUTO 19004KT 10SM BKN019 04/01 A2999 RMK AO2
KMGC 202215Z AUTO 19005KT 10SM CLR 05/01 A2999 RMK AO2
KMGC 202155Z AUTO 20008KT 10SM CLR 05/01 A2997 RMK AO2
KMGC 202135Z AUTO 18007KT 10SM CLR 05/00 A2997 RMK AO2
KMGC 202115Z AUTO 19009KT 10SM CLR 05/00 A2996 RMK AO2
KMGC 202055Z AUTO 20007KT 10SM CLR 06/00 A2995 RMK AO2
KMGC 202035Z AUTO 19009KT 10SM CLR 06/00 A2994 RMK AO2
KMGC 202015Z AUTO 19006KT 10SM CLR 06/00 A2994 RMK AO2
KMGC 201955Z AUTO 16007KT 10SM CLR 06/00 A2995 RMK AO2
KMGC 201935Z AUTO 19007KT 10SM CLR 06/00 A2994 RMK AO2
KMGC 201915Z AUTO 20006KT 10SM CLR 06/00 A2994 RMK AO2
KMGC 201855Z AUTO 20007KT 7SM CLR 05/00 A2995 RMK AO2
KMGC 201835Z AUTO 20007KT 7SM CLR 05/M01 A2995 RMK AO2
KMGC 201815Z AUTO 22008KT 10SM CLR 05/M01 A2997 RMK AO2
KMGC 201755Z AUTO 22007KT 10SM CLR 05/M01 A2996 RMK AO2
KMGC 201735Z AUTO 21007KT 10SM CLR 04/M01 A2996 RMK AO2
KMGC 201715Z AUTO 22007KT 10SM CLR 03/M01 A2997 RMK AO2
KMGC 201655Z AUTO 22008KT 10SM CLR 03/M01 A2997 RMK AO2
KMGC 201635Z AUTO 20009KT 7SM CLR 03/M01 A2997 RMK AO2
KMGC 201615Z AUTO 22009KT 10SM CLR 02/M01 A2998 RMK AO2
KMGC 201555Z AUTO 20008KT 10SM CLR 02/M02 A2997 RMK AO2
KMGC 201535Z AUTO 21009KT 7SM CLR 02/M02 A2997 RMK AO2
KMGC 201515Z AUTO 21011KT 7SM CLR 01/M02 A2996 RMK AO2
KMGC 201455Z AUTO 22008KT 10SM CLR 01/M02 A2995 RMK AO2
KMGC 201435Z AUTO 20006KT 10SM CLR 00/M02 A2994 RMK AO2
KMGC 201415Z AUTO 21008KT 7SM CLR 00/M02 A2994 RMK AO2
KMGC 201355Z AUTO 20007KT 10SM CLR 00/M03 A2994 RMK AO2
KMGC 201335Z AUTO 20007KT 10SM CLR 00/M03 A2993 RMK AO2
KMGC 201315Z AUTO 20004KT 10SM CLR 00/M03 A2992 RMK AO2
KMGC 201255Z AUTO 21007KT 10SM CLR 00/M03 A2992 RMK AO2
KMGC 201235Z AUTO 21007KT 10SM CLR 00/M03 A2991 RMK AO2
KMGC 201215Z AUTO 21009KT 10SM CLR 00/M03 A2990 RMK AO2
KMGC 201155Z AUTO 20007KT 10SM CLR 00/M03 A2989 RMK AO2
KMGC 201135Z AUTO 22009KT 10SM CLR 00/M03 A2989 RMK AO2
KMGC 201115Z AUTO 21006KT 10SM CLR 00/M03 A2989 RMK AO2
KMGC 201055Z AUTO 22008KT 10SM CLR 01/M03 A2987 RMK AO2
KMGC 201035Z AUTO 21008KT 10SM CLR 00/M03 A2987 RMK AO2
KMGC 201015Z AUTO 22009KT 10SM CLR 01/M03 A2987 RMK AO2
KMGC 200955Z AUTO 21008KT 10SM CLR 01/M03 A2986 RMK AO2
KMGC 200935Z AUTO 20007KT 10SM CLR 01/M03 A2985 RMK AO2
KMGC 200915Z AUTO 21009KT 10SM CLR 01/M03 A2985 RMK AO2
KMGC 200855Z AUTO 21009G14KT 10SM CLR 01/M03 A2985 RMK AO2
KMGC 200835Z AUTO 21009KT 10SM CLR 01/M03 A2985 RMK AO2
KMGC 200815Z AUTO 22009KT 10SM CLR 01/M03 A2985 RMK AO2
KMGC 200755Z AUTO 21011KT 10SM CLR 02/M03 A2985 RMK AO2
KMGC 200735Z AUTO 20011KT 10SM CLR 02/M03 A2984 RMK AO2
KMGC 200715Z AUTO 21012G16KT 10SM CLR 02/M03 A2983 RMK AO2
KMGC 200655Z AUTO 21011KT 10SM CLR 02/M03 A2983 RMK AO2
KMGC 200635Z AUTO 20010KT 10SM CLR 02/M03 A2983 RMK AO2
KMGC 200615Z AUTO 20011G17KT 10SM CLR 02/M03 A2982 RMK AO2
KMGC 200555Z AUTO 20010G20KT 10SM CLR 02/M03 A2983 RMK AO2
KMGC 200535Z AUTO 20012G18KT 10SM CLR 02/M03 A2983 RMK AO2
KMGC 200515Z AUTO 20010G16KT 10SM CLR 02/M03 A2983 RMK AO2
KMGC 200455Z AUTO 20015G19KT 10SM CLR 02/M03 A2983 RMK AO2
KMGC 200435Z AUTO 21016G20KT 10SM CLR 02/M03 A2982 RMK AO2
KMGC 200415Z AUTO 21016G20KT 10SM CLR 02/M03 A2981 RMK AO2
KMGC 200355Z AUTO 20014G26KT 10SM CLR 02/M03 A2980 RMK AO2
KMGC 200335Z AUTO 21016G25KT 10SM CLR 02/M03 A2979 RMK AO2
KMGC 200315Z AUTO 20018G24KT 10SM CLR 02/M03 A2978 RMK AO2
KMGC 200255Z AUTO 21018G30KT 10SM CLR 02/M03 A2978 RMK AO2
KMGC 200235Z AUTO 20018G28KT 10SM CLR 02/M03 A2978 RMK AO2
KMGC 200215Z AUTO 20017G24KT 10SM CLR 02/M03 A2978 RMK AO2
KMGC 200155Z AUTO 20018G27KT 10SM CLR 02/M03 A2979 RMK AO2
KMGC 200135Z AUTO 20017G24KT 10SM CLR 02/M03 A2979 RMK AO2
KMGC 200115Z AUTO 20019G26KT 10SM CLR 01/M03 A2979 RMK AO2
KMGC 200055Z AUTO 20017G27KT 10SM CLR 01/M03 A2979 RMK AO2
KMGC 200035Z AUTO 20019G24KT 10SM CLR 01/M03 A2979 RMK AO2
KMGC 200015Z AUTO 19020G26KT 10SM CLR 01/M03 A2979 RMK AO2
KMGC 192355Z AUTO 20016G28KT 10SM CLR 01/M03 A2980 RMK AO2
KMGC 192335Z AUTO 21016G27KT 10SM CLR 01/M04 A2980 RMK AO2
KMGC 192315Z AUTO 20017G26KT 10SM CLR 01/M03 A2980 RMK AO2
KMGC 192255Z AUTO 20016G23KT 10SM CLR 01/M04 A2981 RMK AO2
KMGC 192235Z AUTO 20015G20KT 10SM CLR 01/M03 A2982 RMK AO2
KMGC 192215Z AUTO 20013G24KT 10SM CLR 01/M03 A2982 RMK AO2
KMGC 192155Z AUTO 19012G19KT 10SM CLR 02/M04 A2981 RMK AO2
KMGC 192135Z AUTO 20015G24KT 10SM CLR 01/M04 A2982 RMK AO2
KMGC 192115Z AUTO 20016G24KT 10SM CLR 02/M04 A2982 RMK AO2
KMGC 192055Z AUTO 20015G20KT 10SM CLR 02/M04 A2982 RMK AO2
KMGC 192035Z AUTO 19016G22KT 10SM CLR 02/M05 A2982 RMK AO2
KMGC 192015Z AUTO 20016G24KT 10SM CLR 02/M05 A2982 RMK AO2
KMGC 191955Z AUTO 20015G23KT 10SM CLR 02/M05 A2982 RMK AO2
KMGC 191935Z AUTO 20013G22KT 10SM CLR 02/M05 A2983 RMK AO2
KMGC 191915Z AUTO 20014G21KT 10SM CLR 02/M05 A2983 RMK AO2
KMGC 191855Z AUTO 20010KT 10SM CLR 01/M06 A2984 RMK AO2
KMGC 191835Z AUTO 20017G22KT 10SM CLR 01/M06 A2986 RMK AO2
KMGC 191815Z AUTO 19013G19KT 10SM CLR 01/M06 A2988 RMK AO2
KMGC 191755Z AUTO 20011G17KT 10SM CLR 01/M06 A2990 RMK AO2
KMGC 191735Z AUTO 20009G17KT 10SM CLR 01/M06 A2992 RMK AO2
KMGC 191715Z AUTO 20010KT 10SM CLR 01/M07 A2993 RMK AO2
KMGC 191655Z AUTO 20011KT 10SM CLR 00/M07 A2994 RMK AO2
KMGC 191635Z AUTO 19011G14KT 10SM CLR 00/M07 A2995 RMK AO2
KMGC 191615Z AUTO 21010G15KT 10SM CLR 00/M07 A2996 RMK AO2
KMGC 191555Z AUTO 20011KT 10SM CLR 00/M07 A2995 RMK AO2
KMGC 191535Z AUTO 21010G17KT 10SM CLR M01/M07 A2995 RMK AO2
KMGC 191515Z AUTO 20012G16KT 10SM CLR M01/M08 A2996 RMK AO2